sensor_id;sensor_type;location;lat;lon;timestamp;pressure;altitude;pressure_sealevel;temperature;humidity
27429;BME280;14881;48.092;11.574;2022-08-27T00:01:46;95197.22;;;15.31;100.00
27429;BME280;14881;48.092;11.574;2022-08-27T00:04:14;95198.34;;;15.30;100.00
27429;BME280;14881;48.092;11.574;2022-08-27T00:06:42;95201.41;;;15.29;100.00
27429;BME280;14881;48.092;11.574;2022-08-27T00:09:12;95204.00;;;15.25;100.00
27429;BME280;14881;48.092;11.574;2022-08-27T00:11:42;95204.81;;;15.26;100.00
27429;BME280;14881;48.092;11.574;2022-08-27T00:14:12;95206.75;;;15.25;100.00
27429;BME280;14881;48.092;11.574;2022-08-27T00:16:40;95211.09;;;15.26;100.00
27429;BME280;14881;48.092;11.574;2022-08-27T00:19:09;95203.69;;;15.27;100.00
27429;BME280;14881;48.092;11.574;2022-08-27T00:21:38;95220.28;;;15.22;100.00
27429;BME280;14881;48.092;11.574;2022-08-27T00:24:06;95220.09;;;15.27;100.00
27429;BME280;14881;48.092;11.574;2022-08-27T00:26:34;95228.16;;;15.32;100.00
27429;BME280;14881;48.092;11.574;2022-08-27T00:29:10;95231.66;;;15.41;100.00
27429;BME280;14881;48.092;11.574;2022-08-27T00:31:38;95221.00;;;15.48;100.00
27429;BME280;14881;48.092;11.574;2022-08-27T00:34:06;95228.44;;;15.56;100.00
27429;BME280;14881;48.092;11.574;2022-08-27T00:36:38;95236.94;;;15.63;100.00
27429;BME280;14881;48.092;11.574;2022-08-27T00:39:06;95240.16;;;15.65;100.00
27429;BME280;14881;48.092;11.574;2022-08-27T00:41:34;95230.63;;;15.72;100.00
27429;BME280;14881;48.092;11.574;2022-08-27T00:44:03;95224.94;;;15.77;100.00
27429;BME280;14881;48.092;11.574;2022-08-27T00:46:38;95221.38;;;15.85;100.00
27429;BME280;14881;48.092;11.574;2022-08-27T00:49:10;95222.31;;;15.89;100.00
27429;BME280;14881;48.092;11.574;2022-08-27T00:51:39;95221.69;;;15.92;100.00
27429;BME280;14881;48.092;11.574;2022-08-27T00:54:08;95221.31;;;15.93;100.00
27429;BME280;14881;48.092;11.574;2022-08-27T00:56:43;95216.19;;;15.92;100.00
27429;BME280;14881;48.092;11.574;2022-08-27T00:59:20;95216.19;;;15.92;100.00
27429;BME280;14881;48.092;11.574;2022-08-27T01:01:50;95215.38;;;15.91;100.00
27429;BME280;14881;48.092;11.574;2022-08-27T01:04:36;95211.84;;;15.91;100.00
27429;BME280;14881;48.092;11.574;2022-08-27T01:07:05;95210.88;;;15.87;100.00
27429;BME280;14881;48.092;11.574;2022-08-27T01:09:35;95214.75;;;15.86;100.00
27429;BME280;14881;48.092;11.574;2022-08-27T01:12:03;95210.59;;;15.80;100.00
27429;BME280;14881;48.092;11.574;2022-08-27T01:14:32;95206.44;;;15.74;100.00
27429;BME280;14881;48.092;11.574;2022-08-27T01:17:02;95199.38;;;15.73;100.00
27429;BME280;14881;48.092;11.574;2022-08-27T01:19:35;95199.69;;;15.71;100.00
27429;BME280;14881;48.092;11.574;2022-08-27T01:22:13;95199.22;;;15.69;100.00
27429;BME280;14881;48.092;11.574;2022-08-27T01:24:52;95200.66;;;15.66;100.00
27429;BME280;14881;48.092;11.574;2022-08-27T01:27:25;95199.22;;;15.69;100.00
27429;BME280;14881;48.092;11.574;2022-08-27T01:29:54;95189.88;;;15.70;100.00
27429;BME280;14881;48.092;11.574;2022-08-27T01:32:24;95189.88;;;15.70;100.00
27429;BME280;14881;48.092;11.574;2022-08-27T01:34:53;95194.00;;;15.76;100.00
27429;BME280;14881;48.092;11.574;2022-08-27T01:37:22;95198.34;;;15.77;100.00
27429;BME280;14881;48.092;11.574;2022-08-27T01:39:55;95198.16;;;15.82;100.00
27429;BME280;14881;48.092;11.574;2022-08-27T01:42:27;95204.59;;;15.86;100.00
27429;BME280;14881;48.092;11.574;2022-08-27T01:44:59;95202.13;;;15.93;100.00
27429;BME280;14881;48.092;11.574;2022-08-27T01:47:31;95207.97;;;15.92;100.00
27429;BME280;14881;48.092;11.574;2022-08-27T01:49:59;95210.97;;;15.99;100.00
27429;BME280;14881;48.092;11.574;2022-08-27T01:52:29;95210.66;;;16.00;100.00
27429;BME280;14881;48.092;11.574;2022-08-27T01:54:58;95208.19;;;16.08;100.00
27429;BME280;14881;48.092;11.574;2022-08-27T01:57:27;95208.00;;;16.13;100.00
27429;BME280;14881;48.092;11.574;2022-08-27T01:59:54;95208.13;;;16.16;100.00
27429;BME280;14881;48.092;11.574;2022-08-27T02:02:23;95211.03;;;16.20;100.00
27429;BME280;14881;48.092;11.574;2022-08-27T02:04:51;95205.22;;;16.21;100.00
27429;BME280;14881;48.092;11.574;2022-08-27T02:07:19;95206.34;;;16.20;100.00
27429;BME280;14881;48.092;11.574;2022-08-27T02:09:47;95205.22;;;16.21;100.00
27429;BME280;14881;48.092;11.574;2022-08-27T02:12:19;95207.63;;;16.23;100.00
27429;BME280;14881;48.092;11.574;2022-08-27T02:14:47;95203.59;;;16.20;100.00
27429;BME280;14881;48.092;11.574;2022-08-27T02:17:15;95203.59;;;16.20;100.00
27429;BME280;14881;48.092;11.574;2022-08-27T02:19:43;95196.03;;;16.17;100.00
27429;BME280;14881;48.092;11.574;2022-08-27T02:22:11;95193.75;;;16.19;100.00
27429;BME280;14881;48.092;11.574;2022-08-27T02:24:38;95197.31;;;16.20;100.00
27429;BME280;14881;48.092;11.574;2022-08-27T02:27:07;95194.25;;;16.21;100.00
27429;BME280;14881;48.092;11.574;2022-08-27T02:29:37;95186.03;;;16.21;100.00
27429;BME280;14881;48.092;11.574;2022-08-27T02:32:05;95191.16;;;16.23;100.00
27429;BME280;14881;48.092;11.574;2022-08-27T02:34:42;95187.28;;;16.24;100.00
27429;BME280;14881;48.092;11.574;2022-08-27T02:37:10;95190.38;;;16.22;100.00
27429;BME280;14881;48.092;11.574;2022-08-27T02:39:38;95192.78;;;16.24;100.00
27429;BME280;14881;48.092;11.574;2022-08-27T02:42:11;95182.28;;;16.26;100.00
27429;BME280;14881;48.092;11.574;2022-08-27T02:44:40;95178.41;;;16.27;100.00
27429;BME280;14881;48.092;11.574;2022-08-27T02:47:08;95181.59;;;16.29;100.00
27429;BME280;14881;48.092;11.574;2022-08-27T02:49:37;95175.31;;;16.28;100.00
27429;BME280;14881;48.092;11.574;2022-08-27T02:52:05;95173.50;;;16.32;100.00
27429;BME280;14881;48.092;11.574;2022-08-27T02:54:33;95173.50;;;16.32;100.00
27429;BME280;14881;48.092;11.574;2022-08-27T02:57:05;95172.84;;;16.35;100.00
27429;BME280;14881;48.092;11.574;2022-08-27T02:59:32;95165.75;;;16.34;100.00
27429;BME280;14881;48.092;11.574;2022-08-27T03:02:02;95168.81;;;16.33;100.00
27429;BME280;14881;48.092;11.574;2022-08-27T03:04:30;95174.78;;;16.35;100.00
27429;BME280;14881;48.092;11.574;2022-08-27T03:06:58;95175.13;;;16.33;100.00
27429;BME280;14881;48.092;11.574;2022-08-27T03:09:26;95168.34;;;16.31;100.00
27429;BME280;14881;48.092;11.574;2022-08-27T03:11:56;95177.72;;;16.30;100.00
27429;BME280;14881;48.092;11.574;2022-08-27T03:14:24;95175.31;;;16.28;100.00
27429;BME280;14881;48.092;11.574;2022-08-27T03:16:51;95177.72;;;16.30;100.00
27429;BME280;14881;48.092;11.574;2022-08-27T03:19:21;95176.91;;;16.29;100.00
27429;BME280;14881;48.092;11.574;2022-08-27T03:21:49;95175.31;;;16.28;100.00
27429;BME280;14881;48.092;11.574;2022-08-27T03:24:20;95167.44;;;16.27;100.00
27429;BME280;14881;48.092;11.574;2022-08-27T03:26:48;95182.28;;;16.26;100.00
27429;BME280;14881;48.092;11.574;2022-08-27T03:29:19;95182.72;;;16.28;100.00
27429;BME280;14881;48.092;11.574;2022-08-27T03:31:47;95183.41;;;16.25;100.00
27429;BME280;14881;48.092;11.574;2022-08-27T03:34:15;95190.03;;;16.24;100.00
27429;BME280;14881;48.092;11.574;2022-08-27T03:36:46;95193.91;;;16.23;100.00
27429;BME280;14881;48.092;11.574;2022-08-27T03:39:16;95192.78;;;16.24;100.00
27429;BME280;14881;48.092;11.574;2022-08-27T03:41:45;95194.50;;;16.28;100.00
27429;BME280;14881;48.092;11.574;2022-08-27T03:44:21;95190.19;;;16.27;100.00
27429;BME280;14881;48.092;11.574;2022-08-27T03:46:50;95194.16;;;16.30;100.00
27429;BME280;14881;48.092;11.574;2022-08-27T03:49:19;95187.22;;;16.32;100.00
27429;BME280;14881;48.092;11.574;2022-08-27T03:51:51;95194.31;;;16.33;100.00
27429;BME280;14881;48.092;11.574;2022-08-27T03:54:19;95193.66;;;16.36;100.00
27429;BME280;14881;48.092;11.574;2022-08-27T03:56:48;95186.09;;;16.33;100.00
27429;BME280;14881;48.092;11.574;2022-08-27T03:59:15;95189.63;;;16.34;100.00
27429;BME280;14881;48.092;11.574;2022-08-27T04:01:44;95189.78;;;16.38;100.00
27429;BME280;14881;48.092;11.574;2022-08-27T04:04:11;95189.09;;;16.41;100.00
27429;BME280;14881;48.092;11.574;2022-08-27T04:06:40;95183.75;;;16.44;100.00
27429;BME280;14881;48.092;11.574;2022-08-27T04:09:09;95197.47;;;16.44;100.00
27429;BME280;14881;48.092;11.574;2022-08-27T04:11:37;95193.94;;;16.44;100.00
27429;BME280;14881;48.092;11.574;2022-08-27T04:14:06;95199.53;;;16.47;100.00
27429;BME280;14881;48.092;11.574;2022-08-27T04:16:52;95197.91;;;16.46;100.00
27429;BME280;14881;48.092;11.574;2022-08-27T04:19:21;95195.19;;;16.46;100.00
27429;BME280;14881;48.092;11.574;2022-08-27T04:21:57;95197.59;;;16.48;100.00
27429;BME280;14881;48.092;11.574;2022-08-27T04:24:26;95197.59;;;16.48;100.00
27429;BME280;14881;48.092;11.574;2022-08-27T04:26:54;95195.19;;;16.46;100.00
27429;BME280;14881;48.092;11.574;2022-08-27T04:29:22;95196.31;;;16.45;100.00
27429;BME280;14881;48.092;11.574;2022-08-27T04:31:50;95204.09;;;16.43;100.00
27429;BME280;14881;48.092;11.574;2022-08-27T04:34:18;95205.22;;;16.42;100.00
27429;BME280;14881;48.092;11.574;2022-08-27T04:36:46;95212.31;;;16.43;100.00
27429;BME280;14881;48.092;11.574;2022-08-27T04:39:16;95203.63;;;16.41;100.00
27429;BME280;14881;48.092;11.574;2022-08-27T04:41:48;95206.84;;;16.43;100.00
27429;BME280;14881;48.092;11.574;2022-08-27T04:44:16;95208.97;;;16.38;100.00
27429;BME280;14881;48.092;11.574;2022-08-27T04:46:44;95205.75;;;16.35;100.00
27429;BME280;14881;48.092;11.574;2022-08-27T04:49:15;95204.16;;;16.34;100.00
27429;BME280;14881;48.092;11.574;2022-08-27T04:51:43;95207.34;;;16.36;100.00
27429;BME280;14881;48.092;11.574;2022-08-27T04:54:13;95204.63;;;16.36;100.00
27429;BME280;14881;48.092;11.574;2022-08-27T04:56:42;95209.44;;;16.40;100.00
27429;BME280;14881;48.092;11.574;2022-08-27T04:59:11;95217.00;;;16.43;100.00
27429;BME280;14881;48.092;11.574;2022-08-27T05:01:40;95209.78;;;16.38;100.00
27429;BME280;14881;48.092;11.574;2022-08-27T05:04:10;95223.16;;;16.40;100.00
27429;BME280;14881;48.092;11.574;2022-08-27T05:06:39;95217.34;;;16.41;100.00
27429;BME280;14881;48.092;11.574;2022-08-27T05:09:07;95225.56;;;16.41;100.00
27429;BME280;14881;48.092;11.574;2022-08-27T05:11:36;95216.84;;;16.39;100.00
27429;BME280;14881;48.092;11.574;2022-08-27T05:14:05;95222.97;;;16.45;100.00
27429;BME280;14881;48.092;11.574;2022-08-27T05:16:35;95227.03;;;16.39;100.00
27429;BME280;14881;48.092;11.574;2022-08-27T05:19:04;95212.84;;;16.36;100.00
27429;BME280;14881;48.092;11.574;2022-08-27T05:21:36;95213.66;;;16.37;100.00
27429;BME280;14881;48.092;11.574;2022-08-27T05:24:06;95212.19;;;16.40;100.00
27429;BME280;14881;48.092;11.574;2022-08-27T05:26:35;95210.56;;;16.39;100.00
27429;BME280;14881;48.092;11.574;2022-08-27T05:29:04;95214.59;;;16.41;100.00
27429;BME280;14881;48.092;11.574;2022-08-27T05:31:33;95215.06;;;16.43;100.00
27429;BME280;14881;48.092;11.574;2022-08-27T05:34:02;95216.31;;;16.46;100.00
27429;BME280;14881;48.092;11.574;2022-08-27T05:36:37;95213.03;;;16.52;100.00
27429;BME280;14881;48.092;11.574;2022-08-27T05:39:15;95209.63;;;16.55;100.00
27429;BME280;14881;48.092;11.574;2022-08-27T05:41:43;95207.84;;;16.59;100.00
27429;BME280;14881;48.092;11.574;2022-08-27T05:44:11;95216.22;;;16.63;100.00
27429;BME280;14881;48.092;11.574;2022-08-27T05:46:59;95211.66;;;16.67;100.00
27429;BME280;14881;48.092;11.574;2022-08-27T05:49:28;95212.00;;;16.65;100.00
27429;BME280;14881;48.092;11.574;2022-08-27T05:51:57;95205.50;;;16.70;100.00
27429;BME280;14881;48.092;11.574;2022-08-27T05:54:24;95214.22;;;16.72;100.00
27429;BME280;14881;48.092;11.574;2022-08-27T05:56:52;95214.22;;;16.72;100.00
27429;BME280;14881;48.092;11.574;2022-08-27T05:59:20;95217.91;;;16.76;100.00
27429;BME280;14881;48.092;11.574;2022-08-27T06:02:05;95213.78;;;16.82;100.00
27429;BME280;14881;48.092;11.574;2022-08-27T06:04:35;95210.66;;;16.92;100.00
27429;BME280;14881;48.092;11.574;2022-08-27T06:07:03;95212.41;;;16.97;100.00
27429;BME280;14881;48.092;11.574;2022-08-27T06:09:32;95204.25;;;17.00;100.00
27429;BME280;14881;48.092;11.574;2022-08-27T06:12:00;95213.69;;;17.12;100.00
27429;BME280;14881;48.092;11.574;2022-08-27T06:14:28;95210.06;;;17.20;100.00
27429;BME280;14881;48.092;11.574;2022-08-27T06:16:58;95211.53;;;17.17;100.00
27429;BME280;14881;48.092;11.574;2022-08-27T06:19:27;95212.47;;;17.21;100.00
27429;BME280;14881;48.092;11.574;2022-08-27T06:21:56;95214.19;;;17.26;100.00
27429;BME280;14881;48.092;11.574;2022-08-27T06:24:36;95211.69;;;17.33;100.00
27429;BME280;14881;48.092;11.574;2022-08-27T06:27:04;95206.91;;;17.42;100.00
27429;BME280;14881;48.092;11.574;2022-08-27T06:29:32;95202.09;;;17.51;100.00
27429;BME280;14881;48.092;11.574;2022-08-27T06:32:00;95211.88;;;17.61;100.00
27429;BME280;14881;48.092;11.574;2022-08-27T06:34:28;95200.56;;;17.74;100.00
27429;BME280;14881;48.092;11.574;2022-08-27T06:36:57;95201.84;;;17.89;100.00
27429;BME280;14881;48.092;11.574;2022-08-27T06:39:25;95209.03;;;18.06;100.00
27429;BME280;14881;48.092;11.574;2022-08-27T06:41:56;95196.56;;;18.08;100.00
27429;BME280;14881;48.092;11.574;2022-08-27T06:44:24;95200.00;;;18.18;100.00
27429;BME280;14881;48.092;11.574;2022-08-27T06:46:52;95199.41;;;18.24;100.00
27429;BME280;14881;48.092;11.574;2022-08-27T06:49:22;95196.78;;;18.28;100.00
27429;BME280;14881;48.092;11.574;2022-08-27T06:51:50;95195.50;;;18.25;100.00
27429;BME280;14881;48.092;11.574;2022-08-27T06:54:19;95197.81;;;18.35;100.00
27429;BME280;14881;48.092;11.574;2022-08-27T06:56:47;95197.19;;;18.42;100.00
27429;BME280;14881;48.092;11.574;2022-08-27T06:59:17;95203.84;;;18.41;100.00
27429;BME280;14881;48.092;11.574;2022-08-27T07:01:47;95202.03;;;18.33;100.00
27429;BME280;14881;48.092;11.574;2022-08-27T07:04:18;95196.63;;;18.36;100.00
27429;BME280;14881;48.092;11.574;2022-08-27T07:06:47;95197.31;;;18.46;100.00
27429;BME280;14881;48.092;11.574;2022-08-27T07:09:16;95207.81;;;18.56;100.00
27429;BME280;14881;48.092;11.574;2022-08-27T07:11:47;95207.63;;;18.49;100.00
27429;BME280;14881;48.092;11.574;2022-08-27T07:14:15;95200.03;;;18.58;100.00
27429;BME280;14881;48.092;11.574;2022-08-27T07:16:43;95197.19;;;18.66;100.00
27429;BME280;14881;48.092;11.574;2022-08-27T07:19:13;95201.19;;;18.69;100.00
27429;BME280;14881;48.092;11.574;2022-08-27T07:21:43;95202.81;;;18.70;100.00
27429;BME280;14881;48.092;11.574;2022-08-27T07:24:14;95207.03;;;18.67;100.00
27429;BME280;14881;48.092;11.574;2022-08-27T07:26:48;95206.94;;;18.64;100.00
27429;BME280;14881;48.092;11.574;2022-08-27T07:29:16;95210.59;;;18.68;100.00
27429;BME280;14881;48.092;11.574;2022-08-27T07:31:44;95217.13;;;18.63;100.00
27429;BME280;14881;48.092;11.574;2022-08-27T07:34:12;95211.97;;;18.62;100.00
27429;BME280;14881;48.092;11.574;2022-08-27T07:36:40;95211.63;;;18.63;100.00
27429;BME280;14881;48.092;11.574;2022-08-27T07:39:08;95217.34;;;18.70;100.00
27429;BME280;14881;48.092;11.574;2022-08-27T07:41:36;95219.84;;;18.75;100.00
27429;BME280;14881;48.092;11.574;2022-08-27T07:44:26;95216.75;;;18.77;100.00
27429;BME280;14881;48.092;11.574;2022-08-27T07:47:01;95222.81;;;18.83;100.00
27429;BME280;14881;48.092;11.574;2022-08-27T07:49:29;95225.81;;;18.77;100.00
27429;BME280;14881;48.092;11.574;2022-08-27T07:52:00;95222.72;;;18.79;100.00
27429;BME280;14881;48.092;11.574;2022-08-27T07:54:28;95232.00;;;18.87;100.00
27429;BME280;14881;48.092;11.574;2022-08-27T07:56:56;95232.53;;;18.92;100.00
27429;BME280;14881;48.092;11.574;2022-08-27T07:59:26;95227.47;;;18.94;100.00
27429;BME280;14881;48.092;11.574;2022-08-27T08:01:55;95226.09;;;19.00;100.00
27429;BME280;14881;48.092;11.574;2022-08-27T08:04:23;95229.09;;;18.95;100.00
27429;BME280;14881;48.092;11.574;2022-08-27T08:06:52;95227.78;;;19.05;100.00
27429;BME280;14881;48.092;11.574;2022-08-27T08:09:21;95234.00;;;19.02;100.00
27429;BME280;14881;48.092;11.574;2022-08-27T08:11:50;95231.16;;;18.98;100.00
27429;BME280;14881;48.092;11.574;2022-08-27T08:14:19;95238.31;;;18.87;100.00
27429;BME280;14881;48.092;11.574;2022-08-27T08:16:48;95237.28;;;18.80;100.00
27429;BME280;14881;48.092;11.574;2022-08-27T08:19:16;95243.94;;;18.78;100.00
27429;BME280;14881;48.092;11.574;2022-08-27T08:21:44;95247.94;;;18.81;100.00
27429;BME280;14881;48.092;11.574;2022-08-27T08:24:12;95240.69;;;18.89;100.00
27429;BME280;14881;48.092;11.574;2022-08-27T08:26:40;95249.66;;;18.86;100.00
27429;BME280;14881;48.092;11.574;2022-08-27T08:29:09;95254.50;;;18.76;100.00
27429;BME280;14881;48.092;11.574;2022-08-27T08:31:44;95251.63;;;18.73;100.00
27429;BME280;14881;48.092;11.574;2022-08-27T08:34:17;95251.16;;;18.71;100.00
27429;BME280;14881;48.092;11.574;2022-08-27T08:36:46;95250.81;;;18.72;100.00
27429;BME280;14881;48.092;11.574;2022-08-27T08:39:20;95253.47;;;18.81;100.00
27429;BME280;14881;48.092;11.574;2022-08-27T08:41:50;95260.56;;;18.82;100.00
27429;BME280;14881;48.092;11.574;2022-08-27T08:44:25;95257.66;;;18.91;100.00
27429;BME280;14881;48.092;11.574;2022-08-27T08:47:02;95260.47;;;19.06;100.00
27429;BME280;14881;48.092;11.574;2022-08-27T08:49:40;95245.22;;;19.09;100.00
27429;BME280;14881;48.092;11.574;2022-08-27T08:52:20;95245.53;;;19.20;100.00
27429;BME280;14881;48.092;11.574;2022-08-27T08:55:06;95245.81;;;19.30;100.00
27429;BME280;14881;48.092;11.574;2022-08-27T08:57:39;95256.53;;;19.47;100.00
27429;BME280;14881;48.092;11.574;2022-08-27T09:00:12;95246.00;;;19.65;100.00
27429;BME280;14881;48.092;11.574;2022-08-27T09:02:47;95245.91;;;19.77;100.00
27429;BME280;14881;48.092;11.574;2022-08-27T09:05:17;95249.13;;;19.95;100.00
27429;BME280;14881;48.092;11.574;2022-08-27T09:08:00;95251.63;;;20.16;100.00
27429;BME280;14881;48.092;11.574;2022-08-27T09:10:54;95245.84;;;20.37;100.00
27429;BME280;14881;48.092;11.574;2022-08-27T09:13:29;95244.44;;;20.43;100.00
27429;BME280;14881;48.092;11.574;2022-08-27T09:16:00;95243.16;;;20.56;100.00
27429;BME280;14881;48.092;11.574;2022-08-27T09:18:28;95242.34;;;20.56;100.00
27429;BME280;14881;48.092;11.574;2022-08-27T09:21:04;95245.00;;;20.68;100.00
27429;BME280;14881;48.092;11.574;2022-08-27T09:23:41;95239.56;;;20.91;100.00
27429;BME280;14881;48.092;11.574;2022-08-27T09:26:25;95236.94;;;20.98;100.00
27429;BME280;14881;48.092;11.574;2022-08-27T09:28:57;95244.00;;;21.14;100.00
27429;BME280;14881;48.092;11.574;2022-08-27T09:31:51;95236.69;;;21.41;100.00
27429;BME280;14881;48.092;11.574;2022-08-27T09:34:20;95244.81;;;21.53;100.00
27429;BME280;14881;48.092;11.574;2022-08-27T09:36:54;95230.63;;;21.55;100.00
27429;BME280;14881;48.092;11.574;2022-08-27T09:39:32;95239.91;;;21.66;100.00
27429;BME280;14881;48.092;11.574;2022-08-27T09:42:02;95246.59;;;21.42;100.00
27429;BME280;14881;48.092;11.574;2022-08-27T09:44:31;95242.06;;;21.53;100.00
27429;BME280;14881;48.092;11.574;2022-08-27T09:47:01;95242.69;;;21.24;100.00
27429;BME280;14881;48.092;11.574;2022-08-27T09:49:30;95239.22;;;21.50;100.00
27429;BME280;14881;48.092;11.574;2022-08-27T09:52:01;95234.34;;;21.63;100.00
27429;BME280;14881;48.092;11.574;2022-08-27T09:54:38;95232.59;;;21.54;100.00
27429;BME280;14881;48.092;11.574;2022-08-27T09:57:09;95229.88;;;21.77;100.00
27429;BME280;14881;48.092;11.574;2022-08-27T09:59:40;95223.63;;;22.03;100.00
27429;BME280;14881;48.092;11.574;2022-08-27T10:02:18;95216.91;;;22.27;100.00
27429;BME280;14881;48.092;11.574;2022-08-27T10:04:49;95216.69;;;22.66;100.00
27429;BME280;14881;48.092;11.574;2022-08-27T10:07:41;95224.00;;;22.51;100.00
27429;BME280;14881;48.092;11.574;2022-08-27T10:10:16;95220.56;;;22.35;100.00
27429;BME280;14881;48.092;11.574;2022-08-27T10:13:01;95216.09;;;22.27;100.00
27429;BME280;14881;48.092;11.574;2022-08-27T10:15:42;95216.47;;;22.51;100.00
27429;BME280;14881;48.092;11.574;2022-08-27T10:18:23;95218.84;;;22.49;100.00
27429;BME280;14881;48.092;11.574;2022-08-27T10:21:02;95218.41;;;22.47;100.00
27429;BME280;14881;48.092;11.574;2022-08-27T10:23:41;95220.28;;;22.17;100.00
27429;BME280;14881;48.092;11.574;2022-08-27T10:26:15;95218.38;;;21.98;100.00
27429;BME280;14881;48.092;11.574;2022-08-27T10:29:00;95210.19;;;21.82;100.00
27429;BME280;14881;48.092;11.574;2022-08-27T10:31:36;95211.47;;;21.66;100.00
27429;BME280;14881;48.092;11.574;2022-08-27T10:34:10;95213.19;;;21.74;100.00
27429;BME280;14881;48.092;11.574;2022-08-27T10:36:49;95212.53;;;21.80;100.00
27429;BME280;14881;48.092;11.574;2022-08-27T10:39:28;95221.88;;;21.95;100.00
27429;BME280;14881;48.092;11.574;2022-08-27T10:42:08;95216.69;;;22.13;100.00
27429;BME280;14881;48.092;11.574;2022-08-27T10:44:46;95223.63;;;22.03;100.00
27429;BME280;14881;48.092;11.574;2022-08-27T10:47:30;95218.81;;;22.00;100.00
27429;BME280;14881;48.092;11.574;2022-08-27T10:50:05;95219.44;;;22.13;100.00
27429;BME280;14881;48.092;11.574;2022-08-27T10:52:38;95207.84;;;22.30;100.00
27429;BME280;14881;48.092;11.574;2022-08-27T10:55:13;95205.72;;;22.46;100.00
27429;BME280;14881;48.092;11.574;2022-08-27T10:57:59;95202.56;;;23.01;100.00
27429;BME280;14881;48.092;11.574;2022-08-27T11:00:38;95201.50;;;23.46;100.00
27429;BME280;14881;48.092;11.574;2022-08-27T11:03:09;95194.69;;;23.40;100.00
27429;BME280;14881;48.092;11.574;2022-08-27T11:05:43;95191.72;;;23.55;100.00
27429;BME280;14881;48.092;11.574;2022-08-27T11:08:15;95184.84;;;24.27;100.00
27429;BME280;14881;48.092;11.574;2022-08-27T11:10:49;95187.25;;;24.28;100.00
27429;BME280;14881;48.092;11.574;2022-08-27T11:13:28;95173.41;;;24.36;100.00
27429;BME280;14881;48.092;11.574;2022-08-27T11:15:58;95175.19;;;24.65;100.00
27429;BME280;14881;48.092;11.574;2022-08-27T11:18:36;95182.53;;;23.88;100.00
27429;BME280;14881;48.092;11.574;2022-08-27T11:21:13;95192.03;;;23.50;100.00
27429;BME280;14881;48.092;11.574;2022-08-27T11:23:43;95184.75;;;23.35;100.00
27429;BME280;14881;48.092;11.574;2022-08-27T11:26:14;95187.22;;;23.10;100.00
27429;BME280;14881;48.092;11.574;2022-08-27T11:28:45;95186.66;;;22.98;100.00
27429;BME280;14881;48.092;11.574;2022-08-27T11:31:18;95184.69;;;22.98;100.00
27429;BME280;14881;48.092;11.574;2022-08-27T11:33:52;95181.56;;;22.73;100.00
27429;BME280;14881;48.092;11.574;2022-08-27T11:36:36;95178.69;;;22.92;100.00
27429;BME280;14881;48.092;11.574;2022-08-27T11:39:22;95183.66;;;22.80;100.00
27429;BME280;14881;48.092;11.574;2022-08-27T11:42:02;95176.75;;;22.67;100.00
27429;BME280;14881;48.092;11.574;2022-08-27T11:44:38;95180.09;;;22.53;100.00
27429;BME280;14881;48.092;11.574;2022-08-27T11:47:11;95173.97;;;22.67;100.00
27429;BME280;14881;48.092;11.574;2022-08-27T11:49:45;95174.84;;;23.04;100.00
27429;BME280;14881;48.092;11.574;2022-08-27T11:52:21;95170.41;;;23.63;100.00
27429;BME280;14881;48.092;11.574;2022-08-27T11:54:51;95171.59;;;24.06;100.00
27429;BME280;14881;48.092;11.574;2022-08-27T11:57:32;95159.47;;;23.81;100.00
27429;BME280;14881;48.092;11.574;2022-08-27T12:00:14;95159.16;;;23.93;100.00
27429;BME280;14881;48.092;11.574;2022-08-27T12:02:42;95155.31;;;24.05;100.00
27429;BME280;14881;48.092;11.574;2022-08-27T12:05:21;95156.50;;;24.04;100.00
27429;BME280;14881;48.092;11.574;2022-08-27T12:07:52;95148.44;;;24.39;100.00
27429;BME280;14881;48.092;11.574;2022-08-27T12:10:30;95147.66;;;24.39;100.00
27429;BME280;14881;48.092;11.574;2022-08-27T12:13:16;95135.81;;;24.52;100.00
27429;BME280;14881;48.092;11.574;2022-08-27T12:15:56;95137.81;;;24.59;100.00
27429;BME280;14881;48.092;11.574;2022-08-27T12:18:42;95143.59;;;24.29;100.00
27429;BME280;14881;48.092;11.574;2022-08-27T12:21:24;95125.19;;;24.10;100.00
27429;BME280;14881;48.092;11.574;2022-08-27T12:24:12;95127.13;;;24.03;100.00
27429;BME280;14881;48.092;11.574;2022-08-27T12:26:54;95128.34;;;24.09;100.00
27429;BME280;14881;48.092;11.574;2022-08-27T12:29:26;95130.25;;;23.98;100.00
27429;BME280;14881;48.092;11.574;2022-08-27T12:32:09;95135.66;;;23.80;100.00
27429;BME280;14881;48.092;11.574;2022-08-27T12:34:51;95124.66;;;23.50;100.00
27429;BME280;14881;48.092;11.574;2022-08-27T12:37:28;95123.88;;;23.49;100.00
27429;BME280;14881;48.092;11.574;2022-08-27T12:39:57;95124.38;;;23.55;100.00
27429;BME280;14881;48.092;11.574;2022-08-27T12:42:27;95124.31;;;23.51;100.00
27429;BME280;14881;48.092;11.574;2022-08-27T12:44:57;95122.00;;;23.60;100.00
27429;BME280;14881;48.092;11.574;2022-08-27T12:47:26;95121.53;;;23.51;100.00
27429;BME280;14881;48.092;11.574;2022-08-27T12:49:56;95119.28;;;23.64;100.00
27429;BME280;14881;48.092;11.574;2022-08-27T12:52:56;95120.94;;;23.72;100.00
27429;BME280;14881;48.092;11.574;2022-08-27T12:55:38;95125.78;;;23.82;100.00
27429;BME280;14881;48.092;11.574;2022-08-27T12:58:11;95125.75;;;23.79;100.00
27429;BME280;14881;48.092;11.574;2022-08-27T13:01:10;95122.69;;;23.50;100.00
27429;BME280;14881;48.092;11.574;2022-08-27T13:03:46;95117.22;;;23.57;100.00
27429;BME280;14881;48.092;11.574;2022-08-27T13:06:17;95108.22;;;23.68;100.00